Time;durP1;ratioP1;P1;durP2;ratioP2;P2;SDS_P1;SDS_P2;PMS_P1;PMS_P2;Temp;Humidity;BMP_temperature;BMP_pressure;BME280_temperature;BME280_humidity;BME280_pressure;Samples;Min_cycle;Max_cycle;Signal;HPM_P1;HPM_P2
2022/01/15 00:00:00;;;;;;;4.15;2.65;;;7.40;95.40;;;;;;5006199;28;20105;-48
2022/01/15 00:02:26;;;;;;;9.45;3.58;;;7.40;95.40;;;;;;5007756;28;20051;-48
2022/01/15 00:04:52;;;;;;;5.32;2.53;;;7.40;95.40;;;;;;5006358;28;20054;-48
2022/01/15 00:07:18;;;;;;;15.35;3.85;;;7.40;95.40;;;;;;5001368;28;20038;-48
2022/01/15 00:09:48;;;;;;;6.65;2.72;;;7.40;95.30;;;;;;5002676;28;20037;-48
2022/01/15 00:12:14;;;;;;;14.23;4.70;;;7.40;95.40;;;;;;5004817;28;20026;-48
2022/01/15 00:14:42;;;;;;;12.88;5.43;;;7.30;95.30;;;;;;5001771;28;20396;-48
2022/01/15 00:17:18;;;;;;;15.25;4.95;;;7.40;95.40;;;;;;5002649;28;20492;-48
2022/01/15 00:19:44;;;;;;;9.05;4.13;;;7.40;95.30;;;;;;5002845;28;20535;-48
2022/01/15 00:22:11;;;;;;;5.22;2.95;;;7.30;95.30;;;;;;5002477;28;20030;-47
2022/01/15 00:24:37;;;;;;;7.07;3.28;;;7.40;95.40;;;;;;5006258;28;20026;-48
2022/01/15 00:27:03;;;;;;;8.25;3.55;;;7.30;95.30;;;;;;5004070;28;20458;-47
2022/01/15 00:29:30;;;;;;;3.88;2.80;;;7.30;95.30;;;;;;5005935;28;20146;-47
2022/01/15 00:31:56;;;;;;;8.07;3.97;;;7.30;95.30;;;;;;5000507;28;20106;-48
2022/01/15 00:34:22;;;;;;;8.20;3.55;;;7.40;95.30;;;;;;5002595;28;20018;-48
2022/01/15 00:36:47;;;;;;;6.60;3.00;;;7.30;95.30;;;;;;5005825;28;20030;-48
2022/01/15 00:39:13;;;;;;;9.55;4.32;;;7.30;95.30;;;;;;5003162;28;20030;-48
2022/01/15 00:41:38;;;;;;;11.40;3.88;;;7.30;95.30;;;;;;5007532;28;20117;-48
2022/01/15 00:44:04;;;;;;;13.38;4.03;;;7.30;95.30;;;;;;5002153;28;20030;-48
2022/01/15 00:46:30;;;;;;;7.85;3.90;;;7.30;95.30;;;;;;5002870;28;20040;-47
2022/01/15 00:48:55;;;;;;;11.85;5.00;;;7.30;95.30;;;;;;5006347;28;20025;-48
2022/01/15 00:51:21;;;;;;;9.63;4.43;;;7.30;95.30;;;;;;5000934;28;20058;-48
2022/01/15 00:53:47;;;;;;;8.82;3.78;;;7.30;95.20;;;;;;5005117;28;20076;-48
2022/01/15 00:56:12;;;;;;;8.82;3.83;;;7.30;95.30;;;;;;5002787;28;20361;-48
2022/01/15 00:58:38;;;;;;;6.53;3.50;;;7.30;95.20;;;;;;5001250;28;20038;-48
2022/01/15 01:01:03;;;;;;;12.25;4.68;;;7.30;95.20;;;;;;5005845;28;20026;-49
2022/01/15 01:03:29;;;;;;;10.05;4.13;;;7.30;95.20;;;;;;5004072;28;20335;-48
2022/01/15 01:05:54;;;;;;;7.75;3.55;;;7.30;95.20;;;;;;5002178;28;20060;-48
2022/01/15 01:08:20;;;;;;;12.27;3.72;;;7.30;95.20;;;;;;5003110;28;20699;-48
2022/01/15 01:10:53;;;;;;;8.00;3.38;;;7.30;95.20;;;;;;4999132;28;20027;-48
2022/01/15 01:24:18;;;;;;;6.28;2.88;;;7.30;95.10;;;;;;5004609;28;20038;-48
2022/01/15 01:26:54;;;;;;;4.40;2.60;;;7.30;95.10;;;;;;5003908;28;20040;-48
2022/01/15 01:29:48;;;;;;;3.22;2.60;;;7.30;95.10;;;;;;5000419;28;20110;-48
2022/01/15 01:32:35;;;;;;;9.20;3.00;;;7.30;95.10;;;;;;5000489;28;20049;-48
2022/01/15 01:35:07;;;;;;;6.70;2.60;;;7.30;95.10;;;;;;5002609;28;20038;-48
2022/01/15 01:37:38;;;;;;;6.75;2.65;;;7.30;95.10;;;;;;5004795;28;20477;-48
2022/01/15 01:40:25;;;;;;;8.40;3.25;;;7.30;95.10;;;;;;5005024;28;20462;-48
2022/01/15 01:42:57;;;;;;;8.80;4.22;;;7.30;95.10;;;;;;5003291;28;20034;-48
2022/01/15 01:45:23;;;;;;;7.55;4.07;;;7.20;95.10;;;;;;4999662;28;20220;-48
2022/01/15 01:47:49;;;;;;;9.40;3.05;;;7.20;95.10;;;;;;5002336;28;20049;-48
2022/01/15 01:50:18;;;;;;;8.27;3.83;;;7.20;95.10;;;;;;5000509;28;20026;-48
2022/01/15 01:52:46;;;;;;;7.75;3.80;;;7.20;95.10;;;;;;5002606;28;20530;-48
2022/01/15 01:55:13;;;;;;;5.60;3.20;;;7.20;95.10;;;;;;5003870;28;20361;-48
2022/01/15 01:57:39;;;;;;;11.15;3.85;;;7.20;95.10;;;;;;5001467;28;20074;-48
2022/01/15 02:00:08;;;;;;;6.65;3.25;;;7.20;95.00;;;;;;4999775;28;20033;-48
2022/01/15 02:02:35;;;;;;;6.97;3.88;;;7.20;95.00;;;;;;5004402;28;20124;-48
2022/01/15 02:05:02;;;;;;;8.02;3.13;;;7.20;95.00;;;;;;4999686;28;20026;-48
2022/01/15 02:07:28;;;;;;;8.95;3.78;;;7.20;95.10;;;;;;5004489;28;20464;-48
2022/01/15 02:09:55;;;;;;;7.13;3.30;;;7.20;95.00;;;;;;5004332;28;20031;-48
2022/01/15 02:12:20;;;;;;;7.82;3.67;;;7.20;95.00;;;;;;5003296;28;20040;-48
2022/01/15 02:14:46;;;;;;;11.30;3.65;;;7.20;95.00;;;;;;5000673;28;20030;-48
2022/01/15 02:17:16;;;;;;;8.70;3.45;;;7.20;95.00;;;;;;5002110;28;20075;-48
2022/01/15 02:25:12;;;;;;;7.18;3.38;;;7.20;95.00;;;;;;5001073;28;20045;-48
2022/01/15 02:27:37;;;;;;;8.38;3.75;;;7.20;95.00;;;;;;5004071;28;20091;-48
2022/01/15 02:30:04;;;;;;;8.65;3.58;;;7.20;95.00;;;;;;5000711;28;20029;-48
2022/01/15 02:32:34;;;;;;;8.95;3.28;;;7.20;95.00;;;;;;5004221;28;20409;-47
2022/01/15 02:35:01;;;;;;;;;;;7.20;95.00;;;;;;5003378;28;20037;-48
2022/01/15 02:37:28;;;;;;;7.07;3.33;;;7.20;95.00;;;;;;4999071;28;19925;-48
2022/01/15 02:39:55;;;;;;;8.48;3.70;;;7.20;95.00;;;;;;4999275;28;20338;-48
2022/01/15 02:42:21;;;;;;;6.10;3.63;;;7.20;94.90;;;;;;5002370;28;20368;-48
2022/01/15 02:44:46;;;;;;;9.73;4.82;;;7.20;94.90;;;;;;5006412;28;20022;-48
2022/01/15 02:49:56;;;;;;;12.77;6.00;;;7.20;94.90;;;;;;5002065;28;20411;-48
2022/01/15 02:52:22;;;;;;;10.00;4.18;;;7.10;94.80;;;;;;4999006;28;20034;-48
2022/01/15 02:54:47;;;;;;;9.13;4.43;;;7.20;94.90;;;;;;4996740;28;20352;-48
2022/01/15 02:57:13;;;;;;;8.73;4.30;;;7.20;94.90;;;;;;5001092;28;20042;-48
2022/01/15 02:59:40;;;;;;;10.05;3.70;;;7.10;94.80;;;;;;5000566;28;20109;-48
2022/01/15 03:02:06;;;;;;;7.07;3.20;;;7.20;94.90;;;;;;4998565;28;20089;-48
2022/01/15 03:04:32;;;;;;;10.70;3.58;;;7.10;94.80;;;;;;5003044;28;20449;-48
2022/01/15 03:06:57;;;;;;;13.15;3.58;;;7.10;94.80;;;;;;5000445;28;20034;-48
2022/01/15 03:09:23;;;;;;;5.15;3.25;;;7.10;94.80;;;;;;5001237;28;20044;-48
2022/01/15 03:11:48;;;;;;;7.45;3.42;;;7.10;94.80;;;;;;5001642;28;20365;-48
2022/01/15 03:14:18;;;;;;;11.07;3.60;;;7.10;94.80;;;;;;4998734;28;20026;-48
2022/01/15 03:16:44;;;;;;;5.05;2.78;;;7.10;95.10;;;;;;5002091;28;20043;-48
2022/01/15 03:19:15;;;;;;;5.95;3.45;;;7.10;94.80;;;;;;5001954;28;20048;-48
2022/01/15 03:21:41;;;;;;;5.28;3.17;;;7.10;94.80;;;;;;5000439;28;20034;-48
2022/01/15 03:24:06;;;;;;;8.55;3.05;;;7.10;94.80;;;;;;5001894;28;20029;-48
2022/01/15 03:26:32;;;;;;;4.03;2.83;;;7.10;94.80;;;;;;4998947;28;20285;-47
2022/01/15 03:28:58;;;;;;;4.47;3.10;;;7.10;94.80;;;;;;5000163;28;20022;-48
2022/01/15 03:31:23;;;;;;;6.40;3.25;;;7.10;94.80;;;;;;4995295;28;20034;-48
2022/01/15 03:33:49;;;;;;;7.13;3.05;;;7.10;94.80;;;;;;5000699;28;20452;-48
2022/01/15 03:36:14;;;;;;;7.18;3.80;;;7.10;94.80;;;;;;4999075;28;20022;-48
2022/01/15 03:38:40;;;;;;;5.32;3.08;;;7.10;94.80;;;;;;4995849;28;20044;-48
2022/01/15 03:41:06;;;;;;;7.63;3.42;;;7.10;94.80;;;;;;5000813;28;20064;-48
2022/01/15 03:43:32;;;;;;;5.28;3.38;;;7.10;94.80;;;;;;4998894;28;20369;-48
2022/01/15 03:45:57;;;;;;;4.95;3.53;;;7.10;94.80;;;;;;5000055;28;20492;-48
2022/01/15 03:48:25;;;;;;;9.02;4.35;;;7.10;94.80;;;;;;5000815;28;20100;-48
2022/01/15 03:50:51;;;;;;;6.30;3.35;;;7.10;94.80;;;;;;4995262;28;20022;-48
2022/01/15 03:53:16;;;;;;;6.45;3.75;;;7.10;94.80;;;;;;4997676;28;20114;-48
2022/01/15 03:55:42;;;;;;;13.20;4.90;;;7.10;94.80;;;;;;5001231;28;20483;-48
2022/01/15 03:58:08;;;;;;;10.07;3.88;;;7.10;94.80;;;;;;4997862;28;20073;-48
2022/01/15 04:00:34;;;;;;;5.28;2.85;;;7.10;94.80;;;;;;4998092;28;20368;-48
2022/01/15 04:02:59;;;;;;;8.25;3.90;;;7.10;94.80;;;;;;5001011;28;20480;-48
2022/01/15 04:05:25;;;;;;;6.53;3.92;;;7.10;94.80;;;;;;4999259;28;20033;-48
2022/01/15 04:07:51;;;;;;;8.02;3.28;;;7.10;94.80;;;;;;5002426;28;20026;-47
2022/01/15 04:10:18;;;;;;;7.05;3.90;;;7.10;94.80;;;;;;5003278;28;20080;-48
2022/01/15 04:12:44;;;;;;;8.80;3.83;;;7.10;94.80;;;;;;4997612;28;20117;-48
2022/01/15 04:15:13;;;;;;;8.52;3.90;;;7.00;94.80;;;;;;5000852;28;20029;-48
2022/01/15 04:17:40;;;;;;;6.68;3.45;;;7.10;94.80;;;;;;4998559;28;20050;-48
2022/01/15 04:20:06;;;;;;;9.93;4.20;;;7.10;94.80;;;;;;4997228;28;20025;-47
2022/01/15 04:22:32;;;;;;;7.97;3.95;;;7.10;94.80;;;;;;4999672;28;20038;-48
2022/01/15 04:24:57;;;;;;;6.97;3.97;;;7.10;94.80;;;;;;4998766;28;20075;-48
2022/01/15 04:27:23;;;;;;;10.05;4.43;;;7.10;94.80;;;;;;4997518;28;20046;-48
2022/01/15 04:29:52;;;;;;;8.13;3.92;;;7.10;94.80;;;;;;4996461;28;20445;-48
2022/01/15 04:32:18;;;;;;;8.07;4.22;;;7.00;94.70;;;;;;4999288;28;20356;-48
2022/01/15 04:34:44;;;;;;;11.60;4.40;;;7.10;94.80;;;;;;5002728;28;20026;-48
2022/01/15 04:37:17;;;;;;;14.93;4.57;;;7.00;94.70;;;;;;4996833;28;20247;-47
2022/01/15 04:39:43;;;;;;;7.93;4.50;;;7.00;94.70;;;;;;4998613;28;20058;-48
2022/01/15 04:42:10;;;;;;;8.00;3.72;;;7.00;94.70;;;;;;4998321;28;20251;-48
2022/01/15 04:44:36;;;;;;;7.60;3.15;;;7.00;94.70;;;;;;5009624;28;20157;-48
2022/01/15 04:47:03;;;;;;;6.40;3.17;;;7.00;94.70;;;;;;5002230;28;20461;-48
2022/01/15 04:49:32;;;;;;;12.65;4.47;;;7.00;94.80;;;;;;5001724;28;20046;-47
2022/01/15 04:51:59;;;;;;;8.32;4.07;;;7.00;94.80;;;;;;5005821;28;20473;-48
2022/01/15 04:54:24;;;;;;;9.38;4.30;;;7.00;94.80;;;;;;4999443;28;20030;-47
2022/01/15 04:56:50;;;;;;;9.43;4.20;;;7.00;94.70;;;;;;5003890;28;20060;-48
2022/01/15 04:59:16;;;;;;;9.98;4.32;;;7.00;94.70;;;;;;4999636;28;20105;-48
2022/01/15 05:01:41;;;;;;;8.93;4.38;;;7.00;94.70;;;;;;5006402;28;20034;-48
2022/01/15 05:04:07;;;;;;;8.15;4.13;;;7.00;94.70;;;;;;5001042;28;20037;-48
2022/01/15 05:06:33;;;;;;;7.53;4.00;;;7.00;94.70;;;;;;5005446;28;20023;-48
2022/01/15 05:09:05;;;;;;;8.90;5.35;;;7.00;95.00;;;;;;5003770;28;20034;-48
2022/01/15 05:11:46;;;;;;;8.93;5.03;;;7.00;94.70;;;;;;5004621;28;20033;-48
2022/01/15 05:14:14;;;;;;;8.70;4.78;;;7.00;94.70;;;;;;4998812;28;20046;-48
2022/01/15 05:16:39;;;;;;;12.05;5.20;;;7.00;94.70;;;;;;5003959;28;20040;-48
2022/01/15 05:19:05;;;;;;;10.43;5.15;;;7.00;94.80;;;;;;5001295;28;20030;-48
2022/01/15 05:21:31;;;;;;;11.82;5.30;;;7.00;94.80;;;;;;5003614;28;20130;-50
2022/01/15 05:23:57;;;;;;;10.50;5.07;;;7.00;94.80;;;;;;5005554;28;20030;-48
2022/01/15 05:26:23;;;;;;;12.13;5.30;;;7.00;94.80;;;;;;5002185;28;20525;-48
2022/01/15 05:28:48;;;;;;;10.68;5.13;;;7.00;94.80;;;;;;5003075;28;20109;-48
2022/01/15 05:31:14;;;;;;;15.30;5.70;;;7.00;94.90;;;;;;5009978;28;20021;-48
2022/01/15 05:33:40;;;;;;;13.93;5.93;;;7.00;94.90;;;;;;5006978;28;20045;-48
2022/01/15 05:36:05;;;;;;;12.05;5.40;;;7.00;94.90;;;;;;5010115;28;20104;-48
2022/01/15 05:38:31;;;;;;;12.30;5.72;;;7.00;94.90;;;;;;5006389;28;20042;-48
2022/01/15 05:40:57;;;;;;;12.48;5.53;;;7.00;94.90;;;;;;5009721;28;20025;-48
2022/01/15 05:43:22;;;;;;;8.18;4.45;;;7.00;94.90;;;;;;5010445;28;20032;-48
2022/01/15 05:45:49;;;;;;;14.07;5.35;;;7.00;94.90;;;;;;5009021;28;20449;-48
2022/01/15 05:48:15;;;;;;;10.30;5.38;;;7.00;94.90;;;;;;5011217;28;20404;-48
2022/01/15 05:50:40;;;;;;;7.78;4.43;;;7.00;94.90;;;;;;5009601;28;20026;-48
2022/01/15 05:53:06;;;;;;;8.93;4.95;;;7.00;94.90;;;;;;4999313;28;20030;-48
2022/01/15 05:55:32;;;;;;;17.92;6.78;;;7.00;94.90;;;;;;4998743;28;20038;-48
2022/01/15 05:57:57;;;;;;;12.65;5.38;;;7.00;94.90;;;;;;5002654;28;20338;-48
2022/01/15 06:00:23;;;;;;;10.48;5.68;;;7.00;94.90;;;;;;4999935;28;20061;-47
2022/01/15 06:02:48;;;;;;;17.17;6.90;;;7.00;94.90;;;;;;4998893;28;20321;-48
2022/01/15 06:05:14;;;;;;;15.05;6.53;;;7.00;94.90;;;;;;5006784;28;20452;-48
2022/01/15 06:07:39;;;;;;;16.27;5.57;;;7.00;94.90;;;;;;5004387;28;20033;-48
2022/01/15 06:10:06;;;;;;;14.48;5.43;;;7.00;94.90;;;;;;5001568;28;20175;-48
2022/01/15 06:12:33;;;;;;;10.50;4.90;;;7.00;94.90;;;;;;5004312;28;20061;-48
2022/01/15 06:14:59;;;;;;;11.30;4.80;;;7.00;94.80;;;;;;5000704;28;20033;-48
2022/01/15 06:17:25;;;;;;;13.50;4.85;;;7.00;94.90;;;;;;5002694;28;20037;-48
2022/01/15 06:19:51;;;;;;;16.48;4.57;;;7.00;94.90;;;;;;5009665;28;20049;-48
2022/01/15 06:22:17;;;;;;;8.48;4.03;;;7.00;94.90;;;;;;5005520;28;20022;-48
2022/01/15 06:24:43;;;;;;;8.65;4.80;;;7.00;94.90;;;;;;5002242;28;20477;-48
2022/01/15 06:27:11;;;;;;;7.28;3.92;;;7.00;94.90;;;;;;4999357;28;20109;-48
2022/01/15 06:29:38;;;;;;;9.63;4.88;;;7.00;94.90;;;;;;5006289;28;20413;-48
2022/01/15 06:32:04;;;;;;;13.07;5.13;;;7.00;94.90;;;;;;5001291;28;20034;-48
2022/01/15 06:34:29;;;;;;;9.70;4.18;;;7.00;94.80;;;;;;5000358;28;20081;-48
2022/01/15 06:36:55;;;;;;;10.68;4.03;;;7.00;94.80;;;;;;5005164;28;20038;-48
2022/01/15 06:39:20;;;;;;;8.07;3.95;;;7.00;94.90;;;;;;4998748;28;20449;-48
2022/01/15 06:41:46;;;;;;;7.82;3.50;;;7.00;94.80;;;;;;4998443;28;20113;-48
2022/01/15 06:44:12;;;;;;;13.38;4.28;;;7.00;94.80;;;;;;5000928;28;20480;-48
2022/01/15 06:46:37;;;;;;;6.20;4.22;;;7.00;94.80;;;;;;5003588;28;20038;-48
2022/01/15 06:49:03;;;;;;;8.13;4.45;;;7.00;94.80;;;;;;4997061;28;20549;-48
2022/01/15 06:51:29;;;;;;;8.85;3.97;;;7.00;94.80;;;;;;5000837;28;20117;-47
2022/01/15 06:53:54;;;;;;;6.65;4.25;;;7.00;94.70;;;;;;5001633;28;20117;-47
2022/01/15 06:56:20;;;;;;;9.48;4.22;;;7.00;94.70;;;;;;4999981;28;20089;-48
2022/01/15 06:58:46;;;;;;;9.85;4.40;;;7.00;94.70;;;;;;4998665;28;20039;-48
2022/01/15 07:01:11;;;;;;;16.08;4.97;;;7.00;94.70;;;;;;5002133;28;20025;-47
2022/01/15 07:03:37;;;;;;;10.90;5.18;;;7.00;94.60;;;;;;4998165;28;20040;-48
2022/01/15 07:06:03;;;;;;;7.07;4.53;;;7.00;94.60;;;;;;5002997;28;20466;-48
2022/01/15 07:08:29;;;;;;;11.60;4.65;;;7.00;94.60;;;;;;4998283;28;20080;-48
2022/01/15 07:10:54;;;;;;;12.23;4.97;;;7.00;94.60;;;;;;5001470;28;20026;-48
2022/01/15 07:13:20;;;;;;;22.88;6.55;;;7.00;94.60;;;;;;4999032;28;20030;-48
2022/01/15 07:15:49;;;;;;;17.83;5.95;;;7.00;94.60;;;;;;5003041;28;20025;-48
2022/01/15 07:18:15;;;;;;;11.80;6.20;;;7.00;94.60;;;;;;5004878;28;20034;-48
2022/01/15 07:20:42;;;;;;;11.05;5.30;;;7.00;94.50;;;;;;4999717;28;20033;-48
2022/01/15 07:23:09;;;;;;;11.95;5.43;;;7.00;94.50;;;;;;4996510;28;20041;-48
2022/01/15 07:25:34;;;;;;;10.05;4.50;;;7.00;94.60;;;;;;5008489;28;20018;-47
2022/01/15 07:28:00;;;;;;;10.00;4.55;;;7.00;94.50;;;;;;5009200;28;20037;-47
2022/01/15 07:30:25;;;;;;;9.50;4.38;;;7.00;94.60;;;;;;5007315;28;20051;-48
2022/01/15 07:32:51;;;;;;;8.43;5.20;;;7.00;94.50;;;;;;5008792;28;20141;-48
2022/01/15 07:35:18;;;;;;;10.45;5.03;;;7.00;94.50;;;;;;5004635;28;20061;-47
2022/01/15 07:37:44;;;;;;;10.50;4.95;;;7.00;94.50;;;;;;5005611;28;20069;-48
2022/01/15 07:40:10;;;;;;;9.35;4.72;;;7.00;94.50;;;;;;5003703;28;20036;-48
2022/01/15 07:42:37;;;;;;;11.57;5.57;;;7.00;94.50;;;;;;5006404;28;20099;-48
2022/01/15 07:45:04;;;;;;;14.30;5.65;;;7.00;94.50;;;;;;5007935;28;20021;-48
2022/01/15 07:47:30;;;;;;;11.88;5.50;;;7.00;94.50;;;;;;5009385;28;20076;-48
2022/01/15 07:49:56;;;;;;;11.45;5.28;;;7.00;94.40;;;;;;5009756;28;20489;-48
2022/01/15 07:52:21;;;;;;;9.00;4.63;;;7.00;94.50;;;;;;5005452;28;20105;-48
2022/01/15 07:54:47;;;;;;;8.90;4.43;;;7.00;94.50;;;;;;5002781;28;20026;-48
2022/01/15 07:57:13;;;;;;;7.43;4.82;;;7.00;94.40;;;;;;5009530;28;20042;-47
2022/01/15 07:59:38;;;;;;;10.60;4.70;;;7.00;94.50;;;;;;5002734;28;20509;-48
2022/01/15 08:02:04;;;;;;;7.65;4.18;;;7.00;94.50;;;;;;5000010;28;20030;-48
2022/01/15 08:04:30;;;;;;;9.40;4.55;;;7.00;94.50;;;;;;4997913;28;20484;-48
2022/01/15 08:06:55;;;;;;;8.13;4.05;;;7.00;94.40;;;;;;4996873;28;20054;-47
2022/01/15 08:09:21;;;;;;;9.25;4.72;;;7.00;94.40;;;;;;5001957;28;20056;-48
2022/01/15 08:11:47;;;;;;;15.63;4.53;;;7.00;94.40;;;;;;5003452;28;20065;-48
2022/01/15 08:14:12;;;;;;;10.00;4.18;;;7.00;94.40;;;;;;5002315;28;20442;-48
2022/01/15 08:16:38;;;;;;;14.43;5.72;;;7.00;94.40;;;;;;4996296;28;20081;-48
2022/01/15 08:19:03;;;;;;;11.73;5.93;;;6.90;94.30;;;;;;5005597;28;20583;-49
2022/01/15 08:21:29;;;;;;;16.92;6.93;;;7.00;94.40;;;;;;5002841;28;20113;-48
2022/01/15 08:23:54;;;;;;;8.80;5.38;;;6.90;94.30;;;;;;5001800;28;20382;-48
2022/01/15 08:26:20;;;;;;;12.75;5.70;;;6.90;94.30;;;;;;5002047;28;20038;-48
2022/01/15 08:28:46;;;;;;;18.08;7.53;;;6.90;94.40;;;;;;5003204;28;20095;-48
2022/01/15 08:31:11;;;;;;;14.73;6.55;;;6.90;94.30;;;;;;5005422;28;20714;-48
2022/01/15 08:33:37;;;;;;;21.08;6.45;;;7.00;94.40;;;;;;5005458;28;20588;-48
2022/01/15 08:36:03;;;;;;;14.50;6.10;;;7.00;94.40;;;;;;5004960;28;20080;-48
2022/01/15 08:38:29;;;;;;;16.35;6.72;;;7.00;94.40;;;;;;4999441;28;20088;-48
2022/01/15 08:40:54;;;;;;;10.23;5.55;;;7.00;94.40;;;;;;5002659;28;20052;-47
2022/01/15 08:43:20;;;;;;;20.73;8.18;;;7.00;94.40;;;;;;5005630;28;20037;-48
2022/01/15 08:45:47;;;;;;;11.55;5.85;;;7.00;94.40;;;;;;5006647;28;20041;-48
2022/01/15 08:48:14;;;;;;;14.18;5.55;;;7.00;94.40;;;;;;5003643;28;20109;-48
2022/01/15 08:50:40;;;;;;;14.95;7.30;;;7.00;94.40;;;;;;5001370;28;20034;-48
2022/01/15 08:53:06;;;;;;;27.73;10.10;;;7.00;94.40;;;;;;5005224;28;20029;-48
2022/01/15 08:55:33;;;;;;;33.90;10.90;;;7.00;94.40;;;;;;4997912;28;20536;-48
2022/01/15 08:57:59;;;;;;;27.55;10.63;;;7.00;94.40;;;;;;5003299;28;20038;-48
2022/01/15 09:00:27;;;;;;;32.83;11.07;;;7.00;94.50;;;;;;5003782;28;20034;-48
2022/01/15 09:02:54;;;;;;;28.33;11.65;;;7.00;94.50;;;;;;5003858;28;20053;-48
2022/01/15 09:05:19;;;;;;;28.98;10.45;;;7.00;94.50;;;;;;5006423;28;20112;-48
2022/01/15 09:07:45;;;;;;;29.75;11.15;;;7.00;94.60;;;;;;5001719;28;20029;-48
2022/01/15 09:10:11;;;;;;;29.55;10.00;;;7.00;94.60;;;;;;5002418;28;20034;-48
2022/01/15 09:12:36;;;;;;;36.05;10.50;;;7.00;94.50;;;;;;5006124;28;20033;-48
2022/01/15 09:15:02;;;;;;;28.08;9.85;;;7.00;94.70;;;;;;5002826;28;20046;-48
2022/01/15 09:17:28;;;;;;;24.85;9.07;;;7.00;94.70;;;;;;4998961;28;20038;-48
2022/01/15 09:19:54;;;;;;;30.42;11.02;;;7.00;94.70;;;;;;5006091;28;20038;-48
2022/01/15 09:22:21;;;;;;;27.95;10.27;;;7.00;94.80;;;;;;5000071;28;20465;-48
2022/01/15 09:24:46;;;;;;;23.08;9.15;;;7.00;94.80;;;;;;5004694;28;20041;-48
2022/01/15 09:30:13;;;;;;;20.83;8.70;;;7.00;94.90;;;;;;5005288;28;20500;-48
2022/01/15 09:32:53;;;;;;;26.55;10.02;;;7.00;95.10;;;;;;5000496;28;20030;-49
2022/01/15 09:35:21;;;;;;;34.67;9.77;;;7.00;94.90;;;;;;5004471;28;20124;-48
2022/01/15 09:37:49;;;;;;;25.85;10.30;;;7.00;95.00;;;;;;5003904;28;20092;-48
2022/01/15 09:40:15;;;;;;;25.08;9.20;;;7.00;95.00;;;;;;5002459;28;20026;-48
2022/01/15 09:42:44;;;;;;;23.80;9.70;;;7.00;95.10;;;;;;5003308;28;20089;-48
2022/01/15 09:45:11;;;;;;;27.83;11.50;;;7.10;95.10;;;;;;5002022;28;20104;-48
2022/01/15 09:47:38;;;;;;;25.88;9.75;;;7.10;95.10;;;;;;5006700;28;20045;-48
2022/01/15 09:50:07;;;;;;;24.08;9.13;;;7.10;95.10;;;;;;4998941;28;20058;-48
2022/01/15 09:52:33;;;;;;;26.15;9.23;;;7.10;95.10;;;;;;4999480;28;20026;-48
2022/01/15 09:55:00;;;;;;;27.75;9.90;;;7.10;95.10;;;;;;4999414;28;20495;-47
2022/01/15 09:57:26;;;;;;;31.15;10.77;;;7.10;95.10;;;;;;5000567;28;20129;-48
2022/01/15 09:59:53;;;;;;;37.63;12.57;;;7.10;95.20;;;;;;5003333;28;20089;-48
2022/01/15 10:02:18;;;;;;;29.83;10.55;;;7.10;95.20;;;;;;5001687;28;20465;-47
2022/01/15 10:04:44;;;;;;;31.55;11.82;;;7.10;95.30;;;;;;5001831;28;20038;-48
2022/01/15 10:07:22;;;;;;;35.45;12.32;;;7.10;95.30;;;;;;5001785;28;20034;-48
2022/01/15 10:09:49;;;;;;;32.33;11.27;;;7.10;95.30;;;;;;5000957;28;20080;-48
2022/01/15 10:12:31;;;;;;;28.02;9.82;;;7.10;95.30;;;;;;4997551;28;20330;-48
2022/01/15 10:15:03;;;;;;;29.92;12.57;;;7.20;95.30;;;;;;5003798;28;20475;-48
2022/01/15 10:17:33;;;;;;;28.20;10.23;;;7.20;95.30;;;;;;5001750;28;20038;-47
2022/01/15 10:20:00;;;;;;;25.60;9.93;;;7.20;95.40;;;;;;4998452;28;20466;-48
2022/01/15 10:22:28;;;;;;;27.17;9.57;;;7.20;95.40;;;;;;5002000;28;20281;-47
2022/01/15 10:24:56;;;;;;;25.55;11.02;;;7.20;95.40;;;;;;5000448;28;20069;-47
2022/01/15 10:27:32;;;;;;;25.45;9.30;;;7.20;95.40;;;;;;5002557;28;20484;-48
2022/01/15 10:30:00;;;;;;;38.05;10.70;;;7.20;95.50;;;;;;5003795;28;20030;-48
2022/01/15 10:32:29;;;;;;;24.00;9.85;;;7.20;95.50;;;;;;5002696;28;20021;-48
2022/01/15 10:34:56;;;;;;;26.55;10.23;;;7.20;95.50;;;;;;4999471;28;20044;-48
2022/01/15 10:37:25;;;;;;;24.23;9.18;;;7.20;95.50;;;;;;5003020;28;20069;-49
2022/01/15 10:39:56;;;;;;;25.60;9.00;;;7.20;95.50;;;;;;4997599;28;20416;-48
2022/01/15 10:42:23;;;;;;;26.85;9.27;;;7.20;95.50;;;;;;5001776;28;20487;-48
2022/01/15 10:44:54;;;;;;;22.80;9.05;;;7.20;95.60;;;;;;4998931;28;20113;-48
2022/01/15 10:47:22;;;;;;;26.42;9.27;;;7.30;95.60;;;;;;4999163;28;20105;-48
2022/01/15 10:49:48;;;;;;;20.92;8.82;;;7.20;95.50;;;;;;5003238;28;20080;-48
2022/01/15 10:52:19;;;;;;;23.92;9.60;;;7.20;95.60;;;;;;5000111;28;20030;-48
2022/01/15 10:54:53;;;;;;;35.03;11.30;;;7.20;96.00;;;;;;4999018;28;20037;-48
2022/01/15 10:57:21;;;;;;;27.65;9.32;;;7.30;95.70;;;;;;5004077;28;20053;-48
2022/01/15 10:59:55;;;;;;;23.48;9.43;;;7.20;95.70;;;;;;4998739;28;20382;-48
2022/01/15 11:02:21;;;;;;;27.10;8.95;;;7.30;95.70;;;;;;5003071;28;20109;-48
2022/01/15 11:04:47;;;;;;;28.35;9.98;;;7.30;95.70;;;;;;4998674;28;20034;-48
2022/01/15 11:07:14;;;;;;;19.98;8.45;;;7.30;95.70;;;;;;5002246;28;20084;-48
2022/01/15 11:09:43;;;;;;;19.58;7.63;;;7.30;95.80;;;;;;4998577;28;20412;-48
2022/01/15 11:12:10;;;;;;;24.70;10.50;;;7.20;95.80;;;;;;4996411;28;20507;-48
2022/01/15 11:14:36;;;;;;;23.17;8.45;;;7.30;95.80;;;;;;5001687;28;20103;-48
2022/01/15 11:17:02;;;;;;;25.52;9.82;;;7.30;95.90;;;;;;4998142;28;20058;-48
2022/01/15 11:19:30;;;;;;;26.98;9.43;;;7.30;95.90;;;;;;5004334;28;20056;-48
2022/01/15 11:21:57;;;;;;;21.52;9.98;;;7.30;95.90;;;;;;5003088;28;20029;-48
2022/01/15 11:24:23;;;;;;;24.05;9.73;;;7.30;95.90;;;;;;5004944;28;20567;-47
2022/01/15 11:26:57;;;;;;;26.73;9.25;;;7.30;95.90;;;;;;4999493;28;20026;-48
2022/01/15 11:29:23;;;;;;;28.15;9.65;;;7.30;96.20;;;;;;4999297;28;20058;-48
2022/01/15 11:31:58;;;;;;;22.48;8.73;;;7.30;95.90;;;;;;4999149;28;20030;-48
2022/01/15 11:34:26;;;;;;;28.23;9.93;;;7.30;95.90;;;;;;5003011;28;20083;-48
2022/01/15 11:36:52;;;;;;;23.73;9.00;;;7.30;95.90;;;;;;5002483;28;20104;-48
2022/01/15 11:39:35;;;;;;;19.30;8.73;;;7.40;96.00;;;;;;4999175;28;20034;-48
2022/01/15 11:42:04;;;;;;;31.65;11.15;;;7.30;96.00;;;;;;5002332;28;20084;-48
2022/01/15 11:44:31;;;;;;;29.25;10.60;;;7.30;95.50;;;;;;5004247;28;20034;-48
2022/01/15 11:47:00;;;;;;;33.53;12.23;;;7.40;94.50;;;;;;5001807;28;20042;-48
2022/01/15 11:49:44;;;;;;;24.42;10.23;;;7.30;95.20;;;;;;5000900;28;20477;-48
2022/01/15 11:52:11;;;;;;;26.58;10.45;;;7.20;95.20;;;;;;5001058;28;20073;-48
2022/01/15 11:55:04;;;;;;;26.83;11.13;;;7.30;95.20;;;;;;5006257;28;20091;-48
2022/01/15 11:57:35;;;;;;;34.83;11.40;;;7.30;95.20;;;;;;5008187;28;20032;-48
2022/01/15 12:00:16;;;;;;;24.08;11.07;;;7.30;95.20;;;;;;5009387;28;20372;-48
2022/01/15 12:02:54;;;;;;;30.52;11.25;;;7.30;95.10;;;;;;5010184;28;20025;-48
2022/01/15 12:05:23;;;;;;;28.70;11.35;;;7.30;95.20;;;;;;5009670;28;20022;-48
2022/01/15 12:08:01;;;;;;;31.23;11.15;;;7.30;95.20;;;;;;5013486;28;20044;-48
2022/01/15 12:10:40;;;;;;;29.15;10.60;;;7.30;95.10;;;;;;5010247;28;20101;-49
2022/01/15 12:13:15;;;;;;;30.90;11.80;;;7.40;95.20;;;;;;5012535;28;20022;-48
2022/01/15 12:15:41;;;;;;;29.98;12.13;;;7.30;95.20;;;;;;5010833;28;20104;-48
2022/01/15 12:18:21;;;;;;;27.40;10.55;;;7.30;95.30;;;;;;5011798;28;20388;-48
2022/01/15 12:20:50;;;;;;;25.58;10.40;;;7.30;95.30;;;;;;5012422;28;20030;-48
2022/01/15 12:23:19;;;;;;;30.27;10.37;;;7.30;95.30;;;;;;5012844;28;20085;-49
2022/01/15 12:25:45;;;;;;;31.25;11.35;;;7.30;95.20;;;;;;5007894;28;20284;-48
2022/01/15 12:28:14;;;;;;;28.15;9.88;;;7.30;95.30;;;;;;5007303;28;20031;-48
2022/01/15 12:30:46;;;;;;;34.95;11.95;;;7.30;95.30;;;;;;5006984;28;20061;-48
2022/01/15 12:33:13;;;;;;;28.92;10.90;;;7.40;95.30;;;;;;5006510;28;20030;-48
2022/01/15 12:35:41;;;;;;;29.15;11.18;;;7.30;95.30;;;;;;5010002;28;20319;-48
2022/01/15 12:38:11;;;;;;;27.83;11.07;;;7.30;95.10;;;;;;5010921;28;20041;-48
2022/01/15 12:40:41;;;;;;;20.83;9.07;;;7.30;95.40;;;;;;5005174;28;20111;-48
2022/01/15 12:43:17;;;;;;;34.58;11.23;;;7.40;95.70;;;;;;5004102;28;20104;-48
2022/01/15 12:45:46;;;;;;;31.50;12.23;;;7.40;95.40;;;;;;5005567;28;20022;-48
2022/01/15 12:48:18;;;;;;;30.30;11.20;;;7.30;95.50;;;;;;5009332;28;20057;-48
2022/01/15 12:50:52;;;;;;;31.42;10.13;;;7.40;95.40;;;;;;5005404;28;20037;-48
2022/01/15 12:53:21;;;;;;;24.67;10.23;;;7.40;95.50;;;;;;5008158;28;20030;-49
2022/01/15 12:55:47;;;;;;;27.48;9.73;;;7.40;95.40;;;;;;5005902;28;20038;-49
2022/01/15 12:58:16;;;;;;;28.33;10.15;;;7.40;95.40;;;;;;5002614;28;20085;-48
2022/01/15 13:00:42;;;;;;;24.17;9.23;;;7.40;95.40;;;;;;5005250;28;20022;-48
2022/01/15 13:03:13;;;;;;;34.40;10.90;;;7.40;95.40;;;;;;5004561;28;20064;-49
2022/01/15 13:05:42;;;;;;;26.48;11.02;;;7.40;95.40;;;;;;5003679;28;20038;-48
2022/01/15 13:08:13;;;;;;;25.90;9.75;;;7.40;95.50;;;;;;5006005;28;20030;-49
2022/01/15 13:10:46;;;;;;;28.17;10.50;;;7.40;95.30;;;;;;5004884;28;20081;-50
2022/01/15 13:13:20;;;;;;;27.27;10.75;;;7.40;95.00;;;;;;5005758;28;20026;-50